sensor_id;sensor_type;location;lat;lon;timestamp;P1;durP1;ratioP1;P2;durP2;ratioP2
11334;SDS011;5722;42.620;23.374;2023-10-31T00:00:51;6.67;;;4.63;;
11334;SDS011;5722;42.620;23.374;2023-10-31T00:03:38;5.07;;;3.67;;
11334;SDS011;5722;42.620;23.374;2023-10-31T00:06:15;10.23;;;4.37;;
11334;SDS011;5722;42.620;23.374;2023-10-31T00:08:50;10.23;;;4.30;;
11334;SDS011;5722;42.620;23.374;2023-10-31T00:11:22;6.20;;;3.93;;
11334;SDS011;5722;42.620;23.374;2023-10-31T00:13:59;8.80;;;3.67;;
11334;SDS011;5722;42.620;23.374;2023-10-31T00:16:31;8.80;;;3.90;;
11334;SDS011;5722;42.620;23.374;2023-10-31T00:19:01;6.17;;;3.60;;
11334;SDS011;5722;42.620;23.374;2023-10-31T00:21:40;6.17;;;3.97;;
11334;SDS011;5722;42.620;23.374;2023-10-31T00:24:26;6.10;;;4.27;;
11334;SDS011;5722;42.620;23.374;2023-10-31T00:26:55;5.50;;;3.63;;
11334;SDS011;5722;42.620;23.374;2023-10-31T00:29:29;6.63;;;3.83;;
11334;SDS011;5722;42.620;23.374;2023-10-31T00:32:02;6.07;;;3.90;;
11334;SDS011;5722;42.620;23.374;2023-10-31T00:34:37;7.00;;;3.47;;
11334;SDS011;5722;42.620;23.374;2023-10-31T00:37:11;5.77;;;3.90;;
11334;SDS011;5722;42.620;23.374;2023-10-31T00:40:06;6.80;;;3.63;;
11334;SDS011;5722;42.620;23.374;2023-10-31T00:42:45;7.27;;;3.97;;
11334;SDS011;5722;42.620;23.374;2023-10-31T00:45:30;5.83;;;3.83;;
11334;SDS011;5722;42.620;23.374;2023-10-31T00:48:00;6.67;;;3.53;;
11334;SDS011;5722;42.620;23.374;2023-10-31T00:50:29;6.20;;;3.73;;
11334;SDS011;5722;42.620;23.374;2023-10-31T00:53:05;6.20;;;3.70;;
11334;SDS011;5722;42.620;23.374;2023-10-31T00:58:30;4.10;;;3.33;;
11334;SDS011;5722;42.620;23.374;2023-10-31T01:01:15;4.70;;;3.40;;
11334;SDS011;5722;42.620;23.374;2023-10-31T01:03:52;4.93;;;3.80;;
11334;SDS011;5722;42.620;23.374;2023-10-31T01:06:25;9.77;;;4.00;;
11334;SDS011;5722;42.620;23.374;2023-10-31T01:08:58;7.00;;;4.20;;
11334;SDS011;5722;42.620;23.374;2023-10-31T01:11:44;7.37;;;3.90;;
11334;SDS011;5722;42.620;23.374;2023-10-31T01:14:15;6.10;;;3.70;;
11334;SDS011;5722;42.620;23.374;2023-10-31T01:16:53;4.70;;;3.60;;
11334;SDS011;5722;42.620;23.374;2023-10-31T01:19:27;5.07;;;3.47;;
11334;SDS011;5722;42.620;23.374;2023-10-31T01:22:00;8.00;;;3.80;;
11334;SDS011;5722;42.620;23.374;2023-10-31T01:24:34;6.03;;;3.90;;
11334;SDS011;5722;42.620;23.374;2023-10-31T01:27:10;4.30;;;3.73;;
11334;SDS011;5722;42.620;23.374;2023-10-31T01:32:45;7.03;;;3.90;;
11334;SDS011;5722;42.620;23.374;2023-10-31T01:38:02;5.40;;;3.67;;
11334;SDS011;5722;42.620;23.374;2023-10-31T01:43:37;4.60;;;3.93;;
11334;SDS011;5722;42.620;23.374;2023-10-31T01:46:14;6.37;;;4.13;;
11334;SDS011;5722;42.620;23.374;2023-10-31T01:48:53;6.20;;;3.93;;
11334;SDS011;5722;42.620;23.374;2023-10-31T01:51:34;7.30;;;3.87;;
11334;SDS011;5722;42.620;23.374;2023-10-31T01:54:10;8.07;;;4.10;;
11334;SDS011;5722;42.620;23.374;2023-10-31T01:56:42;10.00;;;4.80;;
11334;SDS011;5722;42.620;23.374;2023-10-31T01:59:15;9.67;;;3.97;;
11334;SDS011;5722;42.620;23.374;2023-10-31T02:04:45;7.87;;;4.43;;
11334;SDS011;5722;42.620;23.374;2023-10-31T02:07:25;9.63;;;4.67;;
11334;SDS011;5722;42.620;23.374;2023-10-31T02:10:07;6.77;;;4.40;;
11334;SDS011;5722;42.620;23.374;2023-10-31T02:12:52;8.47;;;6.70;;
11334;SDS011;5722;42.620;23.374;2023-10-31T02:15:33;7.83;;;6.00;;
11334;SDS011;5722;42.620;23.374;2023-10-31T02:18:09;9.87;;;5.73;;
11334;SDS011;5722;42.620;23.374;2023-10-31T02:20:50;6.73;;;4.27;;
11334;SDS011;5722;42.620;23.374;2023-10-31T02:26:20;6.60;;;4.57;;
11334;SDS011;5722;42.620;23.374;2023-10-31T02:28:59;6.47;;;4.93;;
11334;SDS011;5722;42.620;23.374;2023-10-31T02:31:34;8.93;;;5.10;;
11334;SDS011;5722;42.620;23.374;2023-10-31T02:34:09;8.20;;;5.20;;
11334;SDS011;5722;42.620;23.374;2023-10-31T02:36:46;6.27;;;4.80;;
11334;SDS011;5722;42.620;23.374;2023-10-31T02:39:33;5.13;;;4.63;;
11334;SDS011;5722;42.620;23.374;2023-10-31T02:42:07;7.27;;;5.00;;
11334;SDS011;5722;42.620;23.374;2023-10-31T02:44:54;7.60;;;4.80;;
11334;SDS011;5722;42.620;23.374;2023-10-31T02:47:25;7.17;;;4.80;;
11334;SDS011;5722;42.620;23.374;2023-10-31T02:50:06;6.30;;;4.83;;
11334;SDS011;5722;42.620;23.374;2023-10-31T02:52:46;8.53;;;4.97;;
11334;SDS011;5722;42.620;23.374;2023-10-31T02:55:20;7.00;;;5.13;;
11334;SDS011;5722;42.620;23.374;2023-10-31T02:58:17;8.00;;;4.73;;
11334;SDS011;5722;42.620;23.374;2023-10-31T03:00:51;7.63;;;5.07;;
11334;SDS011;5722;42.620;23.374;2023-10-31T03:03:25;7.47;;;4.87;;
11334;SDS011;5722;42.620;23.374;2023-10-31T03:06:01;6.63;;;4.80;;
11334;SDS011;5722;42.620;23.374;2023-10-31T03:08:30;9.53;;;5.03;;
11334;SDS011;5722;42.620;23.374;2023-10-31T03:11:04;10.37;;;5.20;;
11334;SDS011;5722;42.620;23.374;2023-10-31T03:16:25;7.33;;;5.13;;
11334;SDS011;5722;42.620;23.374;2023-10-31T03:18:56;8.63;;;5.13;;
11334;SDS011;5722;42.620;23.374;2023-10-31T03:21:54;6.53;;;5.30;;
11334;SDS011;5722;42.620;23.374;2023-10-31T03:24:57;10.63;;;5.40;;
11334;SDS011;5722;42.620;23.374;2023-10-31T03:27:31;7.70;;;4.90;;
11334;SDS011;5722;42.620;23.374;2023-10-31T03:30:16;7.10;;;5.13;;
11334;SDS011;5722;42.620;23.374;2023-10-31T03:32:50;5.50;;;4.90;;
11334;SDS011;5722;42.620;23.374;2023-10-31T03:35:28;10.53;;;5.23;;
11334;SDS011;5722;42.620;23.374;2023-10-31T03:38:01;8.80;;;5.50;;
11334;SDS011;5722;42.620;23.374;2023-10-31T03:40:49;9.63;;;5.43;;
11334;SDS011;5722;42.620;23.374;2023-10-31T03:46:31;7.40;;;5.20;;
11334;SDS011;5722;42.620;23.374;2023-10-31T03:49:19;6.10;;;5.47;;
11334;SDS011;5722;42.620;23.374;2023-10-31T03:52:05;6.97;;;5.43;;
11334;SDS011;5722;42.620;23.374;2023-10-31T03:54:41;11.07;;;6.30;;
11334;SDS011;5722;42.620;23.374;2023-10-31T03:57:19;8.50;;;6.60;;
11334;SDS011;5722;42.620;23.374;2023-10-31T04:00:02;10.43;;;6.00;;
11334;SDS011;5722;42.620;23.374;2023-10-31T04:02:42;8.17;;;6.07;;
11334;SDS011;5722;42.620;23.374;2023-10-31T04:10:45;9.67;;;6.50;;
11334;SDS011;5722;42.620;23.374;2023-10-31T04:13:17;12.97;;;6.80;;
11334;SDS011;5722;42.620;23.374;2023-10-31T04:15:52;10.93;;;6.90;;
11334;SDS011;5722;42.620;23.374;2023-10-31T04:18:40;9.23;;;6.83;;
11334;SDS011;5722;42.620;23.374;2023-10-31T04:21:10;11.83;;;7.57;;
11334;SDS011;5722;42.620;23.374;2023-10-31T04:23:40;13.17;;;9.07;;
11334;SDS011;5722;42.620;23.374;2023-10-31T04:26:24;14.43;;;9.10;;
11334;SDS011;5722;42.620;23.374;2023-10-31T04:29:01;13.87;;;8.20;;
11334;SDS011;5722;42.620;23.374;2023-10-31T04:31:38;10.00;;;8.50;;
11334;SDS011;5722;42.620;23.374;2023-10-31T04:34:07;10.67;;;8.10;;
11334;SDS011;5722;42.620;23.374;2023-10-31T04:36:45;15.53;;;8.27;;
11334;SDS011;5722;42.620;23.374;2023-10-31T04:39:14;9.87;;;7.73;;
11334;SDS011;5722;42.620;23.374;2023-10-31T04:41:54;14.00;;;7.90;;
11334;SDS011;5722;42.620;23.374;2023-10-31T04:44:33;12.87;;;7.97;;
11334;SDS011;5722;42.620;23.374;2023-10-31T04:47:11;10.87;;;7.30;;
11334;SDS011;5722;42.620;23.374;2023-10-31T04:49:46;13.77;;;7.00;;
11334;SDS011;5722;42.620;23.374;2023-10-31T04:52:31;14.83;;;7.60;;
11334;SDS011;5722;42.620;23.374;2023-10-31T04:55:14;11.90;;;6.87;;
11334;SDS011;5722;42.620;23.374;2023-10-31T04:58:06;10.00;;;7.00;;
11334;SDS011;5722;42.620;23.374;2023-10-31T05:00:41;10.93;;;7.10;;
11334;SDS011;5722;42.620;23.374;2023-10-31T05:03:31;9.33;;;6.33;;
11334;SDS011;5722;42.620;23.374;2023-10-31T05:11:47;13.90;;;7.00;;
11334;SDS011;5722;42.620;23.374;2023-10-31T05:17:43;10.90;;;7.90;;
11334;SDS011;5722;42.620;23.374;2023-10-31T05:20:24;10.43;;;7.73;;
11334;SDS011;5722;42.620;23.374;2023-10-31T05:22:53;11.10;;;7.77;;
11334;SDS011;5722;42.620;23.374;2023-10-31T05:25:26;10.47;;;7.47;;
11334;SDS011;5722;42.620;23.374;2023-10-31T05:28:02;12.20;;;7.70;;
11334;SDS011;5722;42.620;23.374;2023-10-31T05:30:36;12.50;;;7.33;;
11334;SDS011;5722;42.620;23.374;2023-10-31T05:33:18;12.07;;;7.40;;
11334;SDS011;5722;42.620;23.374;2023-10-31T05:35:55;13.70;;;8.63;;
11334;SDS011;5722;42.620;23.374;2023-10-31T05:38:33;24.47;;;11.30;;
11334;SDS011;5722;42.620;23.374;2023-10-31T05:41:10;15.53;;;9.63;;
11334;SDS011;5722;42.620;23.374;2023-10-31T05:43:44;17.40;;;9.47;;
11334;SDS011;5722;42.620;23.374;2023-10-31T05:46:19;17.00;;;11.00;;
11334;SDS011;5722;42.620;23.374;2023-10-31T05:54:36;17.63;;;11.37;;
11334;SDS011;5722;42.620;23.374;2023-10-31T05:57:11;21.60;;;10.07;;
11334;SDS011;5722;42.620;23.374;2023-10-31T05:59:52;15.87;;;8.80;;
11334;SDS011;5722;42.620;23.374;2023-10-31T06:02:33;16.07;;;9.00;;
11334;SDS011;5722;42.620;23.374;2023-10-31T06:05:05;15.03;;;6.97;;
11334;SDS011;5722;42.620;23.374;2023-10-31T06:08:04;13.67;;;6.20;;
11334;SDS011;5722;42.620;23.374;2023-10-31T06:10:48;11.07;;;5.97;;
11334;SDS011;5722;42.620;23.374;2023-10-31T06:13:32;7.73;;;5.83;;
11334;SDS011;5722;42.620;23.374;2023-10-31T06:19:07;10.87;;;5.53;;
11334;SDS011;5722;42.620;23.374;2023-10-31T06:21:57;18.93;;;13.17;;
11334;SDS011;5722;42.620;23.374;2023-10-31T06:24:49;20.33;;;16.00;;
11334;SDS011;5722;42.620;23.374;2023-10-31T06:27:45;22.80;;;16.83;;
11334;SDS011;5722;42.620;23.374;2023-10-31T06:30:20;18.80;;;13.57;;
11334;SDS011;5722;42.620;23.374;2023-10-31T06:32:57;18.07;;;11.80;;
11334;SDS011;5722;42.620;23.374;2023-10-31T06:35:32;18.83;;;11.40;;
11334;SDS011;5722;42.620;23.374;2023-10-31T06:38:02;15.90;;;9.77;;
11334;SDS011;5722;42.620;23.374;2023-10-31T06:40:44;26.93;;;11.43;;
11334;SDS011;5722;42.620;23.374;2023-10-31T06:43:26;18.53;;;12.10;;
11334;SDS011;5722;42.620;23.374;2023-10-31T06:46:04;21.87;;;12.07;;
11334;SDS011;5722;42.620;23.374;2023-10-31T06:48:38;21.33;;;12.03;;
11334;SDS011;5722;42.620;23.374;2023-10-31T06:51:26;28.83;;;12.63;;
11334;SDS011;5722;42.620;23.374;2023-10-31T06:54:06;19.07;;;12.63;;
11334;SDS011;5722;42.620;23.374;2023-10-31T06:56:47;27.07;;;12.47;;
11334;SDS011;5722;42.620;23.374;2023-10-31T07:02:26;20.07;;;11.40;;
11334;SDS011;5722;42.620;23.374;2023-10-31T07:05:00;16.83;;;11.47;;
11334;SDS011;5722;42.620;23.374;2023-10-31T07:07:42;19.37;;;12.03;;
11334;SDS011;5722;42.620;23.374;2023-10-31T07:10:16;23.57;;;11.17;;
11334;SDS011;5722;42.620;23.374;2023-10-31T07:13:13;20.87;;;11.60;;
11334;SDS011;5722;42.620;23.374;2023-10-31T07:15:48;18.67;;;10.20;;
11334;SDS011;5722;42.620;23.374;2023-10-31T07:18:26;13.97;;;10.40;;
11334;SDS011;5722;42.620;23.374;2023-10-31T07:21:00;17.53;;;9.60;;
11334;SDS011;5722;42.620;23.374;2023-10-31T07:23:46;11.27;;;8.30;;
11334;SDS011;5722;42.620;23.374;2023-10-31T07:26:26;11.10;;;7.70;;
11334;SDS011;5722;42.620;23.374;2023-10-31T07:29:03;9.37;;;6.83;;
11334;SDS011;5722;42.620;23.374;2023-10-31T07:31:51;13.60;;;6.87;;
11334;SDS011;5722;42.620;23.374;2023-10-31T07:35:00;11.17;;;5.80;;
11334;SDS011;5722;42.620;23.374;2023-10-31T07:40:26;7.13;;;4.80;;
11334;SDS011;5722;42.620;23.374;2023-10-31T07:43:09;7.67;;;4.60;;
11334;SDS011;5722;42.620;23.374;2023-10-31T07:45:57;9.10;;;4.93;;
11334;SDS011;5722;42.620;23.374;2023-10-31T07:48:35;7.47;;;4.03;;
11334;SDS011;5722;42.620;23.374;2023-10-31T07:51:19;6.83;;;4.80;;
11334;SDS011;5722;42.620;23.374;2023-10-31T07:54:00;9.50;;;4.57;;
11334;SDS011;5722;42.620;23.374;2023-10-31T07:56:46;8.17;;;4.40;;
11334;SDS011;5722;42.620;23.374;2023-10-31T07:59:28;7.37;;;4.90;;
11334;SDS011;5722;42.620;23.374;2023-10-31T08:05:15;6.17;;;4.20;;
11334;SDS011;5722;42.620;23.374;2023-10-31T08:28:06;7.53;;;4.07;;
11334;SDS011;5722;42.620;23.374;2023-10-31T08:33:49;12.30;;;4.90;;
11334;SDS011;5722;42.620;23.374;2023-10-31T08:36:21;9.80;;;4.37;;
11334;SDS011;5722;42.620;23.374;2023-10-31T08:39:08;8.47;;;4.60;;
11334;SDS011;5722;42.620;23.374;2023-10-31T08:41:57;8.20;;;4.53;;
11334;SDS011;5722;42.620;23.374;2023-10-31T08:50:52;7.63;;;4.30;;
11334;SDS011;5722;42.620;23.374;2023-10-31T08:53:27;11.30;;;5.10;;
11334;SDS011;5722;42.620;23.374;2023-10-31T08:59:20;10.00;;;4.40;;
11334;SDS011;5722;42.620;23.374;2023-10-31T09:05:36;13.20;;;3.90;;
11334;SDS011;5722;42.620;23.374;2023-10-31T09:47:48;33.30;;;4.95;;
11334;SDS011;5722;42.620;23.374;2023-10-31T09:50:18;6.55;;;2.95;;
11334;SDS011;5722;42.620;23.374;2023-10-31T09:55:44;9.90;;;3.13;;
11334;SDS011;5722;42.620;23.374;2023-10-31T09:58:16;7.68;;;2.88;;
11334;SDS011;5722;42.620;23.374;2023-10-31T10:01:01;7.65;;;2.72;;
11334;SDS011;5722;42.620;23.374;2023-10-31T10:09:47;6.85;;;2.45;;
11334;SDS011;5722;42.620;23.374;2023-10-31T10:12:20;8.38;;;3.10;;
11334;SDS011;5722;42.620;23.374;2023-10-31T10:15:01;4.22;;;2.45;;
11334;SDS011;5722;42.620;23.374;2023-10-31T10:18:11;5.95;;;3.03;;
11334;SDS011;5722;42.620;23.374;2023-10-31T10:21:03;7.30;;;2.55;;
11334;SDS011;5722;42.620;23.374;2023-10-31T10:23:48;8.30;;;2.83;;
11334;SDS011;5722;42.620;23.374;2023-10-31T10:26:41;12.70;;;3.35;;
11334;SDS011;5722;42.620;23.374;2023-10-31T10:29:14;4.18;;;2.85;;
11334;SDS011;5722;42.620;23.374;2023-10-31T10:34:34;8.73;;;3.83;;
11334;SDS011;5722;42.620;23.374;2023-10-31T10:40:00;29.50;;;4.93;;
11334;SDS011;5722;42.620;23.374;2023-10-31T10:45:45;7.07;;;2.80;;
11334;SDS011;5722;42.620;23.374;2023-10-31T10:48:40;7.28;;;3.20;;
11334;SDS011;5722;42.620;23.374;2023-10-31T10:57:10;5.70;;;3.08;;
11334;SDS011;5722;42.620;23.374;2023-10-31T11:00:10;5.80;;;3.05;;
11334;SDS011;5722;42.620;23.374;2023-10-31T11:02:48;6.70;;;3.28;;
11334;SDS011;5722;42.620;23.374;2023-10-31T11:08:20;3.92;;;2.13;;
11334;SDS011;5722;42.620;23.374;2023-10-31T11:10:48;7.97;;;2.90;;
11334;SDS011;5722;42.620;23.374;2023-10-31T11:13:31;4.97;;;2.60;;
11334;SDS011;5722;42.620;23.374;2023-10-31T11:16:26;6.63;;;2.70;;
11334;SDS011;5722;42.620;23.374;2023-10-31T11:19:06;8.65;;;3.35;;
11334;SDS011;5722;42.620;23.374;2023-10-31T11:21:57;7.75;;;3.40;;
11334;SDS011;5722;42.620;23.374;2023-10-31T11:24:51;15.23;;;3.60;;
11334;SDS011;5722;42.620;23.374;2023-10-31T11:27:37;8.20;;;3.53;;
11334;SDS011;5722;42.620;23.374;2023-10-31T11:33:13;7.88;;;4.60;;
11334;SDS011;5722;42.620;23.374;2023-10-31T11:38:51;12.63;;;4.70;;
11334;SDS011;5722;42.620;23.374;2023-10-31T11:41:57;8.30;;;3.67;;
11334;SDS011;5722;42.620;23.374;2023-10-31T11:44:57;7.82;;;3.65;;
11334;SDS011;5722;42.620;23.374;2023-10-31T11:50:25;9.23;;;3.40;;
11334;SDS011;5722;42.620;23.374;2023-10-31T11:53:27;8.10;;;3.50;;
11334;SDS011;5722;42.620;23.374;2023-10-31T11:56:16;12.07;;;4.00;;
11334;SDS011;5722;42.620;23.374;2023-10-31T11:58:54;8.57;;;3.80;;
11334;SDS011;5722;42.620;23.374;2023-10-31T12:01:27;11.55;;;4.20;;
11334;SDS011;5722;42.620;23.374;2023-10-31T12:04:03;8.88;;;4.10;;
11334;SDS011;5722;42.620;23.374;2023-10-31T12:06:35;8.80;;;3.90;;
11334;SDS011;5722;42.620;23.374;2023-10-31T12:09:15;9.23;;;3.70;;
11334;SDS011;5722;42.620;23.374;2023-10-31T12:12:05;8.85;;;3.75;;
11334;SDS011;5722;42.620;23.374;2023-10-31T12:14:32;11.93;;;4.47;;
11334;SDS011;5722;42.620;23.374;2023-10-31T12:17:16;10.48;;;4.45;;
11334;SDS011;5722;42.620;23.374;2023-10-31T12:19:58;8.20;;;4.03;;
11334;SDS011;5722;42.620;23.374;2023-10-31T12:22:46;8.30;;;3.80;;
11334;SDS011;5722;42.620;23.374;2023-10-31T23:32:55;6.50;;;2.90;;
11334;SDS011;5722;42.620;23.374;2023-10-31T23:42:16;10.23;;;2.20;;
